createdAt,value
2018-12-20T00:03:24.453Z,42.03
2018-12-20T00:08:29.119Z,33.40
2018-12-20T00:13:33.213Z,35.53
2018-12-20T00:18:37.398Z,38.20
2018-12-20T00:23:41.802Z,42.13
2018-12-20T00:28:46.374Z,38.90
2018-12-20T00:33:50.875Z,35.87
2018-12-20T00:38:55.320Z,37.67
2018-12-20T00:43:59.738Z,36.27
2018-12-20T00:49:03.963Z,33.87
2018-12-20T00:54:08.725Z,34.77
2018-12-20T00:59:13.240Z,39.17
2018-12-20T01:04:17.698Z,38.63
2018-12-20T01:09:22.380Z,37.70
2018-12-20T01:14:27.018Z,42.47
2018-12-20T01:19:31.269Z,35.77
2018-12-20T01:24:35.349Z,37.87
2018-12-20T01:29:39.416Z,42.07
2018-12-20T01:34:43.541Z,37.00
2018-12-20T01:39:48.008Z,38.60
2018-12-20T01:44:53.559Z,40.97
2018-12-20T01:49:58.975Z,38.17
2018-12-20T01:55:03.045Z,45.23
2018-12-20T02:00:10.366Z,43.73
2018-12-20T02:05:15.023Z,40.03
2018-12-20T02:10:19.694Z,41.57
2018-12-20T02:15:24.029Z,41.30
2018-12-20T02:20:28.159Z,39.30
2018-12-20T02:25:32.413Z,42.03
2018-12-20T02:30:37.321Z,39.33
2018-12-20T02:35:41.653Z,38.90
2018-12-20T02:40:45.828Z,40.83
2018-12-20T02:45:49.894Z,37.13
2018-12-20T02:50:54.275Z,40.67
2018-12-20T02:55:59.167Z,44.90
2018-12-20T03:01:03.785Z,41.00
2018-12-20T03:06:08.334Z,38.83
2018-12-20T03:11:12.673Z,41.23
2018-12-20T03:16:17.002Z,39.73
2018-12-20T03:21:21.090Z,40.37
2018-12-20T03:26:25.684Z,36.73
2018-12-20T03:31:30.457Z,36.73
2018-12-20T03:36:35.230Z,36.67
2018-12-20T03:41:41.031Z,38.90
2018-12-20T03:46:45.934Z,40.40
2018-12-20T03:51:51.229Z,40.13
2018-12-20T03:56:55.894Z,39.40
2018-12-20T04:02:00.544Z,37.90
2018-12-20T04:07:04.986Z,41.77
2018-12-20T04:12:09.369Z,41.20
2018-12-20T04:17:13.615Z,41.27
2018-12-20T04:22:18.308Z,46.27
2018-12-20T04:27:22.584Z,43.40
2018-12-20T04:32:26.708Z,43.60
2018-12-20T04:37:30.797Z,43.30
2018-12-20T04:42:35.386Z,42.67
2018-12-20T04:47:39.964Z,42.73
2018-12-20T04:52:44.759Z,44.97
2018-12-20T04:57:49.461Z,44.20
2018-12-20T05:02:53.769Z,39.43
2018-12-20T05:07:58.698Z,42.00
2018-12-20T05:13:03.403Z,42.07
2018-12-20T05:18:08.875Z,40.30
2018-12-20T05:23:13.101Z,42.43
2018-12-20T05:28:17.815Z,42.27
2018-12-20T05:33:22.176Z,41.40
2018-12-20T05:38:26.270Z,44.33
2018-12-20T05:43:30.369Z,43.37
2018-12-20T05:48:34.816Z,44.23
2018-12-20T05:53:39.418Z,45.10
2018-12-20T05:58:44.599Z,45.63
2018-12-20T06:03:49.470Z,46.80
2018-12-20T06:08:53.702Z,49.30
2018-12-20T06:13:58.775Z,51.13
2018-12-20T06:19:03.148Z,49.90
2018-12-20T06:24:07.454Z,50.57
2018-12-20T06:29:11.597Z,49.27
2018-12-20T06:34:15.942Z,45.93
2018-12-20T06:39:20.127Z,51.57
2018-12-20T06:44:24.199Z,50.67
2018-12-20T06:49:28.880Z,53.83
2018-12-20T06:54:32.956Z,54.33
2018-12-20T06:59:37.263Z,55.67
2018-12-20T07:04:41.424Z,55.37
2018-12-20T07:09:45.497Z,57.83
2018-12-20T07:14:49.567Z,54.30
2018-12-20T07:19:53.796Z,55.20
2018-12-20T07:24:57.879Z,54.43
2018-12-20T07:30:02.507Z,48.93
2018-12-20T07:35:07.326Z,42.87
2018-12-20T07:40:11.539Z,41.00
2018-12-20T07:45:15.595Z,47.13
2018-12-20T07:50:19.816Z,42.03
2018-12-20T07:55:23.860Z,42.60
2018-12-20T08:00:29.987Z,44.10
2018-12-20T08:05:34.074Z,43.10
2018-12-20T08:10:38.199Z,50.33
2018-12-20T08:15:42.339Z,51.97
2018-12-20T08:20:46.931Z,55.50
2018-12-20T08:25:50.998Z,52.00
2018-12-20T08:30:55.093Z,53.40
2018-12-20T08:35:59.216Z,52.03
2018-12-20T08:41:03.303Z,54.50
2018-12-20T08:46:07.845Z,56.57
2018-12-20T08:51:11.924Z,53.93
2018-12-20T08:56:16.011Z,50.60
2018-12-20T09:01:20.108Z,53.50
2018-12-20T09:06:24.226Z,49.37
2018-12-20T09:11:28.538Z,57.67
2018-12-20T09:16:32.611Z,51.13
2018-12-20T09:21:36.664Z,49.93
2018-12-20T09:26:40.737Z,43.07
2018-12-20T09:31:44.796Z,36.33
2018-12-20T09:36:48.867Z,33.83
2018-12-20T09:41:52.937Z,35.67
2018-12-20T09:47:02.416Z,39.30
2018-12-20T09:52:06.527Z,36.20
2018-12-20T09:57:11.232Z,34.00
2018-12-20T10:02:15.327Z,35.83
2018-12-20T10:07:20.159Z,33.17
2018-12-20T10:12:24.291Z,32.83
2018-12-20T10:17:28.411Z,31.67
2018-12-20T10:22:32.483Z,33.17
2018-12-20T10:27:36.564Z,37.10
2018-12-20T10:32:40.645Z,34.80
2018-12-20T10:37:44.735Z,43.80
2018-12-20T10:42:48.827Z,47.03
2018-12-20T10:47:57.145Z,48.10
2018-12-20T10:53:13.125Z,46.67
2018-12-20T10:58:22.016Z,54.47
2018-12-20T11:03:31.391Z,59.93
2018-12-20T11:08:37.728Z,67.67
2018-12-20T11:13:42.651Z,62.17
2018-12-20T11:18:46.786Z,61.67
2018-12-20T11:23:50.896Z,59.83
2018-12-20T11:28:55.135Z,58.27
2018-12-20T11:33:59.206Z,59.43
2018-12-20T11:39:08.466Z,45.57
2018-12-20T11:44:11.268Z,50.20
2018-12-20T11:49:15.397Z,46.20
2018-12-20T11:54:19.478Z,43.83
2018-12-20T11:59:23.538Z,47.07
2018-12-20T12:04:27.643Z,43.97
2018-12-20T12:09:31.736Z,43.20
2018-12-20T12:14:35.835Z,37.53
2018-12-20T12:19:40.393Z,40.33
2018-12-20T12:24:45.565Z,42.73
2018-12-20T12:29:49.661Z,42.97
2018-12-20T12:34:53.714Z,42.87
2018-12-20T12:39:58.227Z,44.27
2018-12-20T12:45:03.769Z,41.73
2018-12-20T12:50:08.442Z,39.27
2018-12-20T12:55:12.557Z,47.03
2018-12-20T13:00:20.346Z,53.53
2018-12-20T13:05:24.692Z,43.80
2018-12-20T13:10:28.755Z,37.53
2018-12-20T13:15:32.829Z,33.47
2018-12-20T13:20:36.906Z,31.00
2018-12-20T13:25:40.971Z,27.93
2018-12-20T13:30:45.062Z,29.50
2018-12-20T13:35:49.131Z,30.40
2018-12-20T13:40:53.212Z,33.13
2018-12-20T13:45:57.288Z,33.07
2018-12-20T13:51:01.369Z,31.27
2018-12-20T13:56:06.123Z,32.27
2018-12-20T14:01:10.232Z,30.93
2018-12-20T14:06:14.785Z,41.63
2018-12-20T14:11:18.843Z,47.80
2018-12-20T14:16:22.916Z,43.83
2018-12-20T14:21:26.999Z,46.83
2018-12-20T14:26:31.142Z,54.40
2018-12-20T14:31:35.273Z,44.90
2018-12-20T14:36:39.354Z,38.30
2018-12-20T14:41:43.456Z,38.73
2018-12-20T14:46:47.541Z,39.90
2018-12-20T14:51:51.650Z,46.90
2018-12-20T14:56:55.704Z,48.43
2018-12-20T15:01:59.755Z,66.47
2018-12-20T15:07:03.828Z,72.33
2018-12-20T15:12:07.923Z,81.93
2018-12-20T15:17:11.988Z,87.47
2018-12-20T15:22:16.066Z,92.00
2018-12-20T15:27:20.195Z,85.57
2018-12-20T15:32:24.529Z,88.17
2018-12-20T15:37:28.642Z,90.03
2018-12-20T15:42:34.975Z,97.93
2018-12-20T15:47:39.151Z,89.80
2018-12-20T15:52:43.524Z,102.20
2018-12-20T15:57:47.591Z,91.70
2018-12-20T16:02:51.695Z,89.87
2018-12-20T16:08:00.122Z,93.80
2018-12-20T16:13:05.061Z,86.47
2018-12-20T16:18:09.157Z,74.23
2018-12-20T16:23:13.866Z,69.53
2018-12-20T16:33:33.139Z,65.03
2018-12-20T16:38:37.550Z,47.60
2018-12-20T16:43:41.624Z,55.17
2018-12-20T16:48:45.803Z,68.90
2018-12-20T16:53:49.898Z,79.87
2018-12-20T16:58:54.017Z,85.80
2018-12-20T17:03:58.199Z,114.93
2018-12-20T17:09:02.643Z,91.43
2018-12-20T17:14:06.753Z,65.93
2018-12-20T17:19:10.923Z,55.10
2018-12-20T17:24:15.433Z,43.50
2018-12-20T17:29:19.614Z,46.97
2018-12-20T17:34:24.524Z,48.60
2018-12-20T17:39:28.642Z,57.13
2018-12-20T17:44:32.734Z,39.20
2018-12-20T17:49:36.845Z,53.67
2018-12-20T17:54:41.387Z,36.87
2018-12-20T17:59:45.530Z,35.03
2018-12-20T18:04:49.942Z,28.83
2018-12-20T18:09:54.851Z,29.20
2018-12-20T18:15:01.381Z,30.83
2018-12-20T18:20:08.784Z,32.13
2018-12-20T18:25:13.220Z,31.37
2018-12-20T18:30:17.369Z,32.20
2018-12-20T18:35:21.458Z,36.03
2018-12-20T18:40:27.087Z,31.17
2018-12-20T18:45:31.186Z,31.73
2018-12-20T18:50:35.286Z,32.53
2018-12-20T18:55:39.779Z,33.47
2018-12-20T19:00:44.233Z,31.67
2018-12-20T19:05:48.381Z,33.43
2018-12-20T19:10:52.833Z,32.77
2018-12-20T19:15:56.896Z,36.70
2018-12-20T19:21:01.032Z,41.03
2018-12-20T19:26:05.235Z,41.07
2018-12-20T19:31:09.324Z,40.07
2018-12-20T19:36:13.381Z,37.10
2018-12-20T19:41:17.426Z,34.27
2018-12-20T19:46:21.468Z,36.13
2018-12-20T19:51:25.515Z,37.43
2018-12-20T19:56:29.575Z,36.77
2018-12-20T20:01:33.636Z,36.83
2018-12-20T20:06:37.731Z,49.07
2018-12-20T20:11:41.783Z,35.27
2018-12-20T20:16:50.582Z,37.10
2018-12-20T20:21:52.401Z,35.57
2018-12-20T20:26:56.513Z,36.83
2018-12-20T20:32:01.930Z,36.90
2018-12-20T20:37:05.960Z,36.17
2018-12-20T20:42:10.014Z,39.67
2018-12-20T20:47:14.056Z,34.30
2018-12-20T20:52:18.177Z,35.73
2018-12-20T20:57:22.334Z,35.23
2018-12-20T21:02:26.389Z,35.13
2018-12-20T21:07:30.396Z,36.80
2018-12-20T21:12:34.522Z,37.40
2018-12-20T21:17:38.581Z,37.20
2018-12-20T21:22:42.672Z,36.07
2018-12-20T21:27:46.761Z,36.33
2018-12-20T21:32:50.777Z,37.00
2018-12-20T21:37:55.245Z,37.37
2018-12-20T21:42:59.372Z,36.63
2018-12-20T21:48:03.436Z,35.37
2018-12-20T21:53:07.541Z,33.53
2018-12-20T21:58:11.623Z,33.30
2018-12-20T22:03:15.759Z,32.33
2018-12-20T22:08:19.884Z,31.40
2018-12-20T22:13:24.606Z,33.13
2018-12-20T22:18:28.736Z,33.33
2018-12-20T22:23:32.742Z,31.83
2018-12-20T22:28:36.798Z,30.97
2018-12-20T22:33:40.947Z,32.10
2018-12-20T22:38:45.516Z,31.23
2018-12-20T22:43:49.615Z,34.57
2018-12-20T22:48:55.871Z,31.37
2018-12-20T22:53:59.935Z,29.13
2018-12-20T22:59:04.466Z,29.07
2018-12-20T23:04:08.951Z,27.13
2018-12-20T23:09:13.785Z,28.00
2018-12-20T23:14:18.079Z,26.67
2018-12-20T23:19:22.218Z,26.83
2018-12-20T23:24:26.325Z,24.73
2018-12-20T23:29:30.567Z,26.93
2018-12-20T23:34:36.020Z,26.07
2018-12-20T23:39:41.794Z,24.03
2018-12-20T23:44:46.249Z,22.63
2018-12-20T23:49:50.343Z,22.27
2018-12-20T23:54:54.450Z,21.87
2018-12-20T23:59:59.693Z,22.03
